createdAt,value
2024-01-29T00:03:57.911Z,1.5
2024-01-29T00:08:57.849Z,1.6
2024-01-29T00:13:57.830Z,1.5
2024-01-29T00:23:57.800Z,1.4
2024-01-29T00:53:57.883Z,1.5
2024-01-29T00:58:57.864Z,1.5
2024-01-29T01:08:57.876Z,1.6
2024-01-29T01:13:57.903Z,1.6
2024-01-29T01:23:57.879Z,1.6
2024-01-29T01:33:58.237Z,1.5
2024-01-29T01:43:57.909Z,1.5
2024-01-29T01:48:57.979Z,1.5
2024-01-29T01:53:57.935Z,1.7
2024-01-29T02:08:57.913Z,1.6
2024-01-29T02:13:57.923Z,1.6
2024-01-29T02:18:58.151Z,1.6
2024-01-29T02:28:57.960Z,1.7
2024-01-29T02:33:58.076Z,1.7
2024-01-29T02:43:58.024Z,1.6
2024-01-29T02:53:57.975Z,1.7
2024-01-29T02:58:58.214Z,1.7
2024-01-29T03:08:58.025Z,1.8
2024-01-29T03:13:58.051Z,1.8
2024-01-29T03:28:58.078Z,1.8
2024-01-29T03:38:58.036Z,1.8
2024-01-29T03:43:58.102Z,1.8
2024-01-29T03:53:58.025Z,1.8
2024-01-29T03:58:58.038Z,1.8
2024-01-29T04:03:58.215Z,1.8
2024-01-29T04:08:58.083Z,1.8
2024-01-29T04:13:58.067Z,2
2024-01-29T04:18:58.151Z,1.7
2024-01-29T04:28:58.208Z,1.9
2024-01-29T04:48:58.205Z,1.9
2024-01-29T04:58:58.143Z,1.9
2024-01-29T05:03:58.223Z,2
2024-01-29T05:08:58.362Z,1.9
2024-01-29T05:18:58.230Z,2
2024-01-29T05:23:58.185Z,2.1
2024-01-29T05:28:58.207Z,1.9
2024-01-29T05:38:58.197Z,2
2024-01-29T05:43:58.200Z,2
2024-01-29T06:08:58.198Z,2.1
2024-01-29T06:18:58.491Z,2.1
2024-01-29T06:28:58.210Z,2.1
2024-01-29T06:33:58.791Z,2.1
2024-01-29T06:38:58.233Z,2.2
2024-01-29T06:48:58.263Z,2.2
2024-01-29T06:53:58.238Z,2.3
2024-01-29T07:03:58.364Z,2.3
2024-01-29T07:23:58.297Z,2.3
2024-01-29T07:43:58.303Z,2.5
2024-01-29T07:53:58.280Z,2.5
2024-01-29T07:58:58.274Z,2.5
2024-01-29T08:08:58.420Z,2.4
2024-01-29T08:18:58.525Z,2.5
2024-01-29T08:23:58.321Z,2.5
2024-01-29T08:43:58.347Z,2.6
2024-01-29T08:48:58.399Z,2.6
2024-01-29T08:58:58.534Z,2.5
2024-01-29T09:08:58.355Z,2.8
2024-01-29T09:18:58.591Z,2.7
2024-01-29T09:28:58.366Z,2.8
2024-01-29T09:33:58.503Z,2.9
2024-01-29T09:43:58.378Z,3
2024-01-29T10:03:58.418Z,3.1
2024-01-29T10:13:58.387Z,3.2
2024-01-29T10:18:58.539Z,3.3
2024-01-29T10:23:58.410Z,3.2
2024-01-29T10:33:58.570Z,3.3
2024-01-29T10:43:58.383Z,3.4
2024-01-29T10:48:58.479Z,3.5
2024-01-29T10:58:59.433Z,3.6
2024-01-29T11:23:58.401Z,3.9
2024-01-29T11:28:58.497Z,4.2
2024-01-29T11:38:58.538Z,4.1
2024-01-29T11:48:58.785Z,4.3
2024-01-29T11:58:58.719Z,4.5
2024-01-29T12:03:58.473Z,4.4
2024-01-29T12:08:58.436Z,4.6
2024-01-29T12:13:58.447Z,4.6
2024-01-29T12:23:58.525Z,4.8
2024-01-29T12:38:59.019Z,5
2024-01-29T12:43:58.449Z,5
2024-01-29T12:55:12.703Z,5.1
2024-01-29T12:58:58.624Z,5.2
2024-01-29T13:08:58.486Z,5.1
2024-01-29T13:13:58.520Z,5.2
2024-01-29T13:18:58.859Z,5.1
2024-01-29T13:23:58.520Z,5.3
2024-01-29T13:28:58.536Z,5.4
2024-01-29T13:33:58.627Z,5.3
2024-01-29T13:38:58.531Z,5.5
2024-01-29T13:43:58.553Z,5.5
2024-01-29T13:48:58.570Z,5.6
2024-01-29T14:08:58.551Z,5.7
2024-01-29T14:13:58.558Z,5.7
2024-01-29T14:18:58.946Z,5.6
2024-01-29T14:28:58.577Z,5.7
2024-01-29T14:33:58.661Z,5.8
2024-01-29T14:43:58.577Z,5.8
2024-01-29T14:48:58.634Z,5.8
2024-01-29T14:53:58.640Z,5.8
2024-01-29T14:58:58.625Z,5.7
2024-01-29T15:03:58.871Z,5.8
2024-01-29T15:28:58.827Z,6
2024-01-29T15:38:58.686Z,6
2024-01-29T15:48:58.871Z,6
2024-01-29T15:58:58.806Z,6
2024-01-29T16:03:58.714Z,6
2024-01-29T16:13:58.706Z,6.1
2024-01-29T16:18:58.807Z,6.1
2024-01-29T16:28:58.703Z,6.3
2024-01-29T16:53:58.740Z,6.6
2024-01-29T17:13:58.794Z,6.6
2024-01-29T17:23:58.807Z,6.8
2024-01-29T17:28:58.820Z,6.7
2024-01-29T17:33:58.918Z,6.8
2024-01-29T17:43:58.777Z,6.8
2024-01-29T17:48:59.147Z,6.9
2024-01-29T18:03:58.847Z,6.7
2024-01-29T18:13:58.829Z,6.7
2024-01-29T18:18:58.996Z,6.8
2024-01-29T18:28:58.829Z,6.7
2024-01-29T18:33:59.100Z,6.7
2024-01-29T18:43:58.877Z,6.9
2024-01-29T18:53:58.888Z,6.6
2024-01-29T18:58:58.907Z,6.7
2024-01-29T19:03:59.041Z,6.7
2024-01-29T19:23:58.882Z,6.7
2024-01-29T19:28:58.894Z,6.7
2024-01-29T19:33:59.042Z,6.7
2024-01-29T19:43:58.914Z,6.7
2024-01-29T19:48:58.970Z,6.7
2024-01-29T19:58:58.960Z,6.7
2024-01-29T20:03:59.061Z,6.7
2024-01-29T20:08:58.975Z,6.6
2024-01-29T20:23:58.999Z,6.8
2024-01-29T20:43:58.995Z,6.6
2024-01-29T20:48:59.177Z,6.6
2024-01-29T20:58:59.104Z,6.5
2024-01-29T21:08:59.052Z,6.5
2024-01-29T21:13:59.067Z,6.5
2024-01-29T21:18:59.210Z,6.5
2024-01-29T21:28:59.100Z,6.4
2024-01-29T21:38:59.073Z,6.5
2024-01-29T22:03:59.112Z,6.4
2024-01-29T22:13:59.016Z,6.3
2024-01-29T22:23:59.061Z,6.3
2024-01-29T22:33:59.100Z,6.4
2024-01-29T22:38:59.077Z,6.4
2024-01-29T22:48:59.262Z,6.3
2024-01-29T22:58:59.124Z,6.3
2024-01-29T23:03:59.227Z,6.3
2024-01-29T23:23:59.117Z,6.3
2024-01-29T23:28:59.117Z,6.3
2024-01-29T23:33:59.193Z,6.3
2024-01-29T23:38:59.167Z,6.3
2024-01-29T23:48:59.254Z,6.2
2024-01-29T23:58:59.149Z,6.3
